Time;durP1;ratioP1;P1;durP2;ratioP2;P2;SDS_P1;SDS_P2;PMS_P1;PMS_P2;Temp;Humidity;BMP_temperature;BMP_pressure;BME280_temperature;BME280_humidity;BME280_pressure;Samples;Min_cycle;Max_cycle;Signal;HPM_P1;HPM_P2
2023/01/01 00:01:40;;;;;;;21.73;13.18;;;15.20;99.90;;;;;;4988199;28;20522;-84
2023/01/01 00:04:08;;;;;;;17.25;9.88;;;15.20;99.90;;;;;;4999054;28;20618;-85
2023/01/01 00:06:34;;;;;;;23.58;10.73;;;15.10;99.90;;;;;;4987403;28;20027;-85
2023/01/01 00:11:44;;;;;;;22.92;12.65;;;15.20;99.90;;;;;;5005597;28;20071;-84
2023/01/01 00:14:09;;;;;;;16.15;8.10;;;15.20;99.90;;;;;;4981889;28;20037;-85
2023/01/01 00:16:35;;;;;;;28.58;12.75;;;15.30;99.90;;;;;;4984588;28;20165;-84
2023/01/01 00:19:00;;;;;;;26.45;13.23;;;15.20;99.90;;;;;;4984126;28;20037;-84
2023/01/01 00:21:26;;;;;;;20.08;11.65;;;15.20;99.90;;;;;;4985533;28;20037;-84
2023/01/01 00:23:51;;;;;;;18.77;9.77;;;15.30;99.90;;;;;;4987451;28;20042;-85
2023/01/01 00:26:17;;;;;;;25.58;15.85;;;15.20;99.90;;;;;;4994612;28;20070;-84
2023/01/01 00:28:43;;;;;;;28.00;15.25;;;15.20;99.90;;;;;;4980694;28;20125;-83
2023/01/01 00:31:13;;;;;;;20.38;11.45;;;15.20;99.90;;;;;;5002564;28;20026;-85
2023/01/01 00:33:45;;;;;;;26.92;14.82;;;15.20;99.90;;;;;;4962343;28;20046;-85
2023/01/01 00:36:15;;;;;;;22.98;14.07;;;15.20;99.90;;;;;;4991578;28;20398;-85
2023/01/01 00:38:41;;;;;;;13.27;8.68;;;15.20;99.90;;;;;;4999401;28;20066;-85
2023/01/01 00:41:07;;;;;;;20.88;11.02;;;15.20;99.90;;;;;;5002153;28;20034;-84
2023/01/01 00:43:32;;;;;;;32.80;19.17;;;15.20;99.90;;;;;;5000866;28;20081;-83
2023/01/01 00:45:58;;;;;;;23.33;13.93;;;15.10;99.90;;;;;;4982789;28;20026;-84
2023/01/01 00:48:23;;;;;;;28.45;14.07;;;15.10;99.90;;;;;;5003581;28;20068;-83
2023/01/01 00:50:49;;;;;;;29.48;17.13;;;15.10;99.90;;;;;;4987424;28;20452;-84
2023/01/01 00:53:15;;;;;;;32.00;18.38;;;15.10;99.90;;;;;;5006889;28;20398;-84
2023/01/01 00:55:41;;;;;;;31.25;15.60;;;15.00;99.90;;;;;;4990956;28;20030;-84
2023/01/01 00:58:07;;;;;;;24.85;15.63;;;15.10;99.90;;;;;;4991136;28;20783;-84
2023/01/01 01:00:32;;;;;;;23.05;11.60;;;15.10;99.90;;;;;;4970538;28;20459;-84
2023/01/01 01:02:58;;;;;;;24.33;14.27;;;15.00;99.90;;;;;;4987484;28;20112;-84
2023/01/01 01:05:23;;;;;;;14.57;7.90;;;15.00;99.90;;;;;;4975114;28;20116;-85
2023/01/01 01:07:49;;;;;;;27.52;13.07;;;15.00;99.90;;;;;;5002654;28;20042;-84
2023/01/01 01:10:14;;;;;;;18.55;12.05;;;15.00;99.90;;;;;;4987087;28;20033;-84
2023/01/01 01:12:40;;;;;;;16.02;10.68;;;15.10;99.90;;;;;;4990830;28;20037;-84
2023/01/01 01:15:06;;;;;;;13.55;7.03;;;15.00;99.90;;;;;;4982973;28;20096;-84
2023/01/01 01:17:32;;;;;;;7.93;5.18;;;15.00;99.90;;;;;;4974840;28;20041;-84
2023/01/01 01:19:57;;;;;;;20.33;11.80;;;15.00;99.90;;;;;;5002363;28;20813;-84
2023/01/01 01:22:23;;;;;;;11.60;6.88;;;15.00;99.90;;;;;;5004085;28;20061;-84
2023/01/01 01:24:49;;;;;;;18.70;8.65;;;14.90;99.90;;;;;;4999294;28;20034;-84
2023/01/01 01:27:14;;;;;;;12.20;6.10;;;14.90;99.90;;;;;;4985499;28;20161;-84
2023/01/01 01:29:40;;;;;;;19.67;9.75;;;15.00;99.90;;;;;;4991442;28;20118;-84
2023/01/01 01:32:05;;;;;;;14.85;8.18;;;14.90;99.90;;;;;;4988247;28;20055;-84
2023/01/01 01:34:31;;;;;;;17.23;9.13;;;14.80;99.90;;;;;;4997406;28;20431;-83
2023/01/01 01:36:57;;;;;;;9.52;6.53;;;14.90;99.90;;;;;;4982988;28;20540;-83
2023/01/01 01:39:22;;;;;;;15.50;7.97;;;14.80;99.90;;;;;;4974518;28;20774;-84
2023/01/01 01:41:48;;;;;;;14.18;6.50;;;14.80;99.90;;;;;;4983309;28;20022;-83
2023/01/01 01:44:47;;;;;;;18.48;7.47;;;14.80;99.90;;;;;;4984517;28;20057;-84
2023/01/01 01:47:31;;;;;;;13.07;6.53;;;14.80;99.90;;;;;;5000533;28;20030;-84
2023/01/01 01:50:03;;;;;;;11.93;6.40;;;14.80;99.90;;;;;;4988166;28;20038;-83
2023/01/01 01:52:29;;;;;;;10.75;4.90;;;14.80;99.90;;;;;;4986723;28;20081;-84
2023/01/01 01:55:04;;;;;;;;;;;;;;;;;;;;;
2023/01/01 01:57:30;;;;;;;9.02;4.28;;;14.80;99.90;;;;;;4987552;28;20471;-83
2023/01/01 01:59:56;;;;;;;8.90;5.93;;;14.70;99.90;;;;;;4979138;28;20117;-83
2023/01/01 02:02:30;;;;;;;8.73;5.78;;;14.70;99.90;;;;;;4987303;28;20053;-84
2023/01/01 02:04:56;;;;;;;9.40;4.93;;;14.70;99.90;;;;;;4971577;28;20498;-84
2023/01/01 02:07:21;;;;;;;12.20;6.07;;;14.70;99.90;;;;;;4983330;28;20041;-84
2023/01/01 02:09:47;;;;;;;10.50;5.78;;;14.70;99.90;;;;;;4988318;28;20034;-83
2023/01/01 02:12:12;;;;;;;12.80;4.63;;;14.70;99.90;;;;;;4984216;28;20398;-84
2023/01/01 02:14:38;;;;;;;7.45;4.63;;;14.60;99.90;;;;;;5003900;28;20560;-84
2023/01/01 02:17:14;;;;;;;8.52;3.83;;;14.60;99.90;;;;;;4984606;28;20548;-84
2023/01/01 02:20:02;;;;;;;9.00;5.05;;;14.60;99.90;;;;;;4997138;28;20137;-83
2023/01/01 02:22:52;;;;;;;7.18;3.75;;;14.60;99.90;;;;;;5001677;28;20038;-84
2023/01/01 02:25:39;;;;;;;11.13;3.90;;;14.50;99.90;;;;;;4942175;28;1071727;-84
2023/01/01 02:28:13;;;;;;;7.53;2.95;;;14.60;99.90;;;;;;5003902;28;20040;-83
2023/01/01 02:30:40;;;;;;;3.70;1.90;;;14.50;99.90;;;;;;5006752;28;20464;-84
2023/01/01 02:33:10;;;;;;;2.30;1.52;;;14.50;99.90;;;;;;4988671;28;20041;-84
2023/01/01 02:35:41;;;;;;;5.28;1.92;;;14.40;99.90;;;;;;4972416;28;20569;-83
2023/01/01 02:38:32;;;;;;;7.65;2.08;;;14.40;99.90;;;;;;4988470;28;20034;-83
2023/01/01 02:41:14;;;;;;;3.97;1.80;;;14.50;99.90;;;;;;5002224;28;20093;-83
2023/01/01 02:43:40;;;;;;;6.50;2.30;;;14.60;99.90;;;;;;5002964;28;20027;-83
2023/01/01 02:46:07;;;;;;;7.03;1.55;;;14.40;99.90;;;;;;4973504;28;20504;-83
2023/01/01 02:48:51;;;;;;;4.20;1.65;;;14.40;99.90;;;;;;5001877;28;20713;-84
2023/01/01 02:51:38;;;;;;;1.65;0.80;;;14.40;99.90;;;;;;4985105;28;20710;-84
2023/01/01 02:54:18;;;;;;;3.97;1.00;;;14.40;99.90;;;;;;4981751;28;20031;-83
2023/01/01 02:56:59;;;;;;;1.58;1.00;;;14.50;99.90;;;;;;5001652;28;20401;-84
2023/01/01 03:02:30;;;;;;;3.90;1.67;;;14.30;99.90;;;;;;5001110;28;20080;-83
2023/01/01 03:05:01;;;;;;;1.73;0.85;;;14.40;99.90;;;;;;5021151;28;20048;-84
2023/01/01 03:07:30;;;;;;;3.40;1.38;;;14.40;99.90;;;;;;5005343;28;20046;-84
2023/01/01 03:10:18;;;;;;;1.63;0.98;;;14.40;99.90;;;;;;5002826;28;20041;-83
2023/01/01 03:13:08;;;;;;;5.38;1.25;;;14.40;99.90;;;;;;4991624;28;20037;-84
2023/01/01 03:15:39;;;;;;;3.78;1.17;;;14.30;99.90;;;;;;4988223;28;20069;-83
2023/01/01 03:18:15;;;;;;;6.13;1.23;;;14.30;99.90;;;;;;5000444;28;20568;-84
2023/01/01 03:20:42;;;;;;;5.68;0.82;;;14.30;99.90;;;;;;5000400;28;20034;-83
2023/01/01 03:23:11;;;;;;;4.90;0.90;;;14.30;99.90;;;;;;4986849;28;20089;-84
2023/01/01 03:25:40;;;;;;;2.60;1.15;;;14.30;99.90;;;;;;4983826;28;20037;-83
2023/01/01 03:28:11;;;;;;;0.98;0.50;;;14.30;99.90;;;;;;4987758;28;20030;-83
2023/01/01 03:30:37;;;;;;;4.75;0.85;;;14.30;99.90;;;;;;4983213;28;20045;-83
2023/01/01 03:33:15;;;;;;;3.35;1.30;;;14.20;99.90;;;;;;5000000;28;20038;-83
2023/01/01 03:35:46;;;;;;;2.92;0.90;;;14.30;99.90;;;;;;4989489;28;20367;-84
2023/01/01 03:38:21;;;;;;;9.80;1.65;;;14.20;99.90;;;;;;4970088;28;20478;-83
2023/01/01 03:40:47;;;;;;;4.65;1.20;;;14.20;99.90;;;;;;4960853;28;20030;-83
2023/01/01 03:43:20;;;;;;;6.75;1.38;;;14.20;99.90;;;;;;4987917;28;20060;-83
2023/01/01 03:45:45;;;;;;;3.53;0.70;;;14.20;99.90;;;;;;4986760;28;20029;-83
2023/01/01 03:48:11;;;;;;;1.48;0.95;;;14.20;99.90;;;;;;4984428;28;20037;-83
2023/01/01 03:50:43;;;;;;;4.95;1.38;;;14.20;99.90;;;;;;4998090;28;20512;-83
2023/01/01 03:53:38;;;;;;;6.97;1.00;;;14.20;99.90;;;;;;4986479;28;20030;-83
2023/01/01 03:56:20;;;;;;;1.42;0.68;;;14.20;99.90;;;;;;5001640;28;20065;-83
2023/01/01 03:58:54;;;;;;;3.22;0.82;;;14.20;99.90;;;;;;4978546;28;20037;-83
2023/01/01 04:01:34;;;;;;;3.58;0.88;;;14.20;99.90;;;;;;4999164;28;20026;-84
2023/01/01 04:04:06;;;;;;;5.63;0.95;;;14.10;99.90;;;;;;4986827;28;20041;-83
2023/01/01 04:06:32;;;;;;;1.52;0.55;;;14.20;99.90;;;;;;4988495;28;20030;-83
2023/01/01 04:08:58;;;;;;;1.60;0.98;;;14.10;99.90;;;;;;4980111;28;20118;-83
2023/01/01 04:14:09;;;;;;;12.32;4.18;;;14.10;99.90;;;;;;5001968;28;20049;-83
2023/01/01 04:16:34;;;;;;;1.83;1.35;;;14.20;99.90;;;;;;5003718;28;20034;-83
2023/01/01 04:19:00;;;;;;;6.75;0.90;;;14.20;99.90;;;;;;4988516;28;20140;-83
2023/01/01 04:21:25;;;;;;;6.10;1.25;;;14.10;99.90;;;;;;5005578;28;20050;-84
2023/01/01 04:23:51;;;;;;;5.22;1.35;;;14.00;99.90;;;;;;4988573;28;20073;-83
2023/01/01 04:26:16;;;;;;;2.58;0.90;;;14.10;99.90;;;;;;4982974;28;20057;-83
2023/01/01 04:28:42;;;;;;;2.50;1.00;;;14.10;99.90;;;;;;5000766;28;20046;-83
2023/01/01 04:31:08;;;;;;;5.55;1.10;;;14.10;99.90;;;;;;4986906;28;20124;-83
2023/01/01 04:33:34;;;;;;;4.00;1.27;;;14.10;99.90;;;;;;4990856;28;20109;-83
2023/01/01 04:36:07;;;;;;;4.13;1.15;;;14.10;99.90;;;;;;5000793;28;20056;-83
2023/01/01 04:38:33;;;;;;;1.08;0.63;;;14.10;99.90;;;;;;4973362;28;20458;-83
2023/01/01 04:40:59;;;;;;;1.67;0.93;;;14.10;99.90;;;;;;4998975;28;20121;-83
2023/01/01 04:43:25;;;;;;;4.45;1.92;;;14.10;99.90;;;;;;4988700;28;20034;-83
2023/01/01 04:45:57;;;;;;;1.92;1.15;;;14.00;99.90;;;;;;4980061;28;20507;-83
2023/01/01 04:48:23;;;;;;;2.70;0.95;;;14.10;99.90;;;;;;4988180;28;20026;-84
2023/01/01 04:50:56;;;;;;;4.82;1.45;;;14.10;99.90;;;;;;4987885;28;20080;-83
2023/01/01 04:53:21;;;;;;;1.83;0.65;;;14.00;99.90;;;;;;4986161;28;20026;-83
2023/01/01 04:55:47;;;;;;;3.35;1.00;;;14.10;99.90;;;;;;4998919;28;20034;-83
2023/01/01 04:58:13;;;;;;;5.00;1.00;;;14.10;99.90;;;;;;4989208;28;20026;-83
2023/01/01 05:00:38;;;;;;;4.10;1.35;;;14.10;99.90;;;;;;4980765;28;20567;-83
2023/01/01 05:03:04;;;;;;;1.65;0.88;;;14.10;99.90;;;;;;4976076;28;20414;-83
2023/01/01 05:05:29;;;;;;;2.83;0.50;;;14.20;99.90;;;;;;5004393;28;20034;-83
2023/01/01 05:07:55;;;;;;;5.82;1.33;;;14.10;99.90;;;;;;5005645;28;20029;-84
2023/01/01 05:10:20;;;;;;;4.53;1.15;;;14.20;99.90;;;;;;4987775;28;20034;-83
2023/01/01 05:12:46;;;;;;;3.95;1.17;;;14.30;99.90;;;;;;4985142;28;20023;-83
2023/01/01 05:15:12;;;;;;;4.20;1.20;;;14.30;99.90;;;;;;4979734;28;20080;-84
2023/01/01 05:17:37;;;;;;;6.72;1.10;;;14.20;99.90;;;;;;4988378;28;20041;-83
2023/01/01 05:20:03;;;;;;;4.85;1.30;;;14.30;99.90;;;;;;4989606;28;20030;-83
2023/01/01 05:22:28;;;;;;;3.22;1.00;;;14.20;99.90;;;;;;4997926;28;20034;-83
2023/01/01 05:24:54;;;;;;;3.17;1.17;;;14.20;99.90;;;;;;5003421;28;20512;-83
2023/01/01 05:27:19;;;;;;;2.80;1.10;;;14.10;99.90;;;;;;5005355;28;20028;-83
2023/01/01 05:29:45;;;;;;;5.38;1.95;;;14.10;99.90;;;;;;4992235;28;20034;-83
2023/01/01 05:32:10;;;;;;;4.95;1.00;;;14.10;99.90;;;;;;4982535;28;20109;-83
2023/01/01 05:34:36;;;;;;;6.60;1.55;;;14.10;99.90;;;;;;5005565;28;20502;-83
2023/01/01 05:37:02;;;;;;;2.47;0.90;;;14.10;99.90;;;;;;4976118;28;20037;-83
2023/01/01 05:39:27;;;;;;;10.30;3.45;;;14.10;99.90;;;;;;4994986;28;20034;-82
2023/01/01 05:41:53;;;;;;;1.75;1.00;;;14.00;99.90;;;;;;5017853;28;20519;-83
2023/01/01 05:44:18;;;;;;;3.92;0.88;;;14.00;99.90;;;;;;4991065;28;20513;-82
2023/01/01 05:46:44;;;;;;;4.60;1.30;;;14.00;99.90;;;;;;4992586;28;20036;-83
2023/01/01 05:49:10;;;;;;;3.55;1.38;;;14.00;99.90;;;;;;4990870;28;20109;-83
2023/01/01 05:51:36;;;;;;;5.38;1.00;;;14.00;99.90;;;;;;4990968;28;20037;-83
2023/01/01 05:54:01;;;;;;;5.20;1.27;;;14.00;99.90;;;;;;4974972;28;20046;-83
2023/01/01 05:56:27;;;;;;;4.10;1.10;;;14.10;99.90;;;;;;5006122;28;20492;-83
2023/01/01 05:58:53;;;;;;;1.13;0.43;;;14.00;99.90;;;;;;5003620;28;20034;-83
2023/01/01 06:01:19;;;;;;;4.40;1.00;;;14.00;99.90;;;;;;4987995;28;20057;-83
2023/01/01 06:03:47;;;;;;;0.85;0.63;;;14.00;99.90;;;;;;4983423;28;20128;-83
2023/01/01 06:06:15;;;;;;;5.28;0.90;;;13.80;99.90;;;;;;4977882;28;20040;-83
2023/01/01 06:08:40;;;;;;;2.83;1.27;;;13.90;99.90;;;;;;4998169;28;20036;-83
2023/01/01 06:11:10;;;;;;;3.42;1.17;;;13.80;99.90;;;;;;4989666;28;20042;-83
2023/01/01 06:13:35;;;;;;;12.00;1.48;;;13.80;99.90;;;;;;4976424;28;20057;-83
2023/01/01 06:16:01;;;;;;;5.50;1.05;;;13.90;99.90;;;;;;4977450;28;20080;-83
2023/01/01 06:18:31;;;;;;;2.65;1.20;;;13.70;99.90;;;;;;4991077;28;20680;-83
2023/01/01 06:21:08;;;;;;;1.48;0.77;;;13.60;99.90;;;;;;4982514;28;20113;-82
2023/01/01 06:23:33;;;;;;;3.92;1.23;;;13.60;99.90;;;;;;4990457;28;20391;-83
2023/01/01 06:26:15;;;;;;;5.78;1.60;;;13.60;99.90;;;;;;4992831;28;20042;-83
2023/01/01 06:28:41;;;;;;;5.32;1.27;;;13.60;99.90;;;;;;4989934;28;20088;-82
2023/01/01 06:31:08;;;;;;;6.35;2.38;;;13.60;99.90;;;;;;4988435;28;20038;-83
2023/01/01 06:33:33;;;;;;;3.95;0.82;;;13.50;99.90;;;;;;4986938;28;20030;-83
2023/01/01 06:36:01;;;;;;;4.45;0.95;;;13.40;99.90;;;;;;4984832;28;20037;-83
2023/01/01 06:38:26;;;;;;;3.88;1.45;;;13.40;99.90;;;;;;4990339;28;20764;-83
2023/01/01 06:41:03;;;;;;;3.20;0.95;;;13.50;99.90;;;;;;5004472;28;20153;-83
2023/01/01 06:43:29;;;;;;;3.15;1.42;;;13.50;99.90;;;;;;4990223;28;20486;-83
2023/01/01 06:46:20;;;;;;;3.60;1.40;;;13.60;99.90;;;;;;4988240;28;20034;-83
2023/01/01 06:48:49;;;;;;;6.35;1.38;;;13.50;99.90;;;;;;5003230;28;20121;-82
2023/01/01 06:51:19;;;;;;;2.60;0.88;;;13.50;99.90;;;;;;4989691;28;20439;-83
2023/01/01 06:53:45;;;;;;;2.10;0.95;;;13.60;99.90;;;;;;5003793;28;20034;-83
2023/01/01 06:56:11;;;;;;;12.98;1.05;;;13.60;99.90;;;;;;5001270;28;20047;-83
2023/01/01 06:58:36;;;;;;;5.60;1.42;;;13.60;99.90;;;;;;4982433;28;20022;-83
2023/01/01 07:01:32;;;;;;;3.33;1.38;;;13.70;99.90;;;;;;4974504;28;20069;-83
2023/01/01 07:04:02;;;;;;;5.70;0.95;;;13.60;99.90;;;;;;4988762;28;20042;-82
2023/01/01 07:06:29;;;;;;;2.47;0.70;;;13.60;99.90;;;;;;4971546;28;20057;-83
2023/01/01 07:08:54;;;;;;;2.20;0.90;;;13.60;99.90;;;;;;4988164;28;20048;-82
2023/01/01 07:11:20;;;;;;;3.80;2.28;;;13.60;99.90;;;;;;4999385;28;20112;-83
2023/01/01 07:13:45;;;;;;;3.53;1.10;;;13.50;99.90;;;;;;4988004;28;20084;-83
2023/01/01 07:16:11;;;;;;;2.53;0.93;;;13.50;99.90;;;;;;4998235;28;20037;-83
2023/01/01 07:18:37;;;;;;;8.75;1.85;;;13.50;99.90;;;;;;4979677;28;20426;-83
2023/01/01 07:21:03;;;;;;;5.95;0.75;;;13.40;99.90;;;;;;4972040;28;20026;-83
2023/01/01 07:23:30;;;;;;;6.70;1.67;;;13.40;99.90;;;;;;4988330;28;20022;-83
2023/01/01 07:25:56;;;;;;;3.42;1.02;;;13.40;99.90;;;;;;4999057;28;20556;-83
2023/01/01 07:28:22;;;;;;;3.03;1.20;;;13.40;99.90;;;;;;4983820;28;20030;-83
2023/01/01 07:30:47;;;;;;;2.55;0.82;;;13.30;99.90;;;;;;4977526;28;20030;-82
2023/01/01 07:33:18;;;;;;;4.00;1.10;;;13.50;99.90;;;;;;4969387;28;20378;-82
2023/01/01 07:35:44;;;;;;;1.65;0.85;;;13.40;99.90;;;;;;4973049;28;20037;-83
2023/01/01 07:38:10;;;;;;;3.63;1.23;;;13.40;99.90;;;;;;4989848;28;20141;-83
2023/01/01 07:40:36;;;;;;;0.88;0.30;;;13.40;99.90;;;;;;4998179;28;20490;-83
2023/01/01 07:43:02;;;;;;;6.53;0.88;;;13.30;99.90;;;;;;4984250;28;20518;-83
2023/01/01 07:45:27;;;;;;;4.38;1.75;;;13.30;99.90;;;;;;4987280;28;20034;-83
2023/01/01 07:48:43;;;;;;;5.18;1.35;;;13.30;99.90;;;;;;4974355;28;20038;-83
2023/01/01 07:51:58;;;;;;;1.77;1.33;;;13.20;99.90;;;;;;5007571;28;20038;-82
2023/01/01 07:55:13;;;;;;;3.58;1.17;;;13.20;99.90;;;;;;4992569;28;20893;-83
2023/01/01 07:58:30;;;;;;;2.03;0.60;;;13.10;99.90;;;;;;5003689;28;20038;-82
2023/01/01 08:01:45;;;;;;;2.13;1.10;;;13.00;99.90;;;;;;5019489;28;20090;-83
2023/01/01 08:05:01;;;;;;;5.15;1.08;;;12.90;99.90;;;;;;5001653;28;20493;-83
2023/01/01 08:08:17;;;;;;;1.40;0.90;;;12.80;99.90;;;;;;5000399;28;20402;-82
2023/01/01 08:11:32;;;;;;;6.10;1.25;;;12.80;99.90;;;;;;5001043;28;20034;-83
2023/01/01 08:14:47;;;;;;;3.63;1.02;;;12.80;99.90;;;;;;4996868;28;20041;-83
2023/01/01 08:18:03;;;;;;;4.90;1.10;;;12.70;99.90;;;;;;5003069;28;20034;-83
2023/01/01 08:21:18;;;;;;;6.50;1.63;;;12.70;99.90;;;;;;5002884;28;20026;-83
2023/01/01 08:24:33;;;;;;;2.88;1.00;;;12.70;99.90;;;;;;5019356;28;20514;-83
2023/01/01 08:27:49;;;;;;;5.53;1.60;;;12.60;99.90;;;;;;5001018;28;20046;-82
2023/01/01 08:31:05;;;;;;;2.78;0.70;;;12.70;99.90;;;;;;5004848;28;20034;-83
2023/01/01 08:34:20;;;;;;;5.82;1.10;;;12.60;99.90;;;;;;5018597;28;20493;-82
2023/01/01 08:37:36;;;;;;;2.53;1.15;;;12.70;99.90;;;;;;5004128;28;20026;-82
2023/01/01 08:40:51;;;;;;;1.83;1.15;;;12.60;99.90;;;;;;5002733;28;20059;-83
2023/01/01 08:44:07;;;;;;;4.07;1.15;;;12.60;99.90;;;;;;5001818;28;20520;-83
2023/01/01 08:47:22;;;;;;;5.93;1.42;;;12.70;99.90;;;;;;4995337;28;20035;-83
2023/01/01 08:50:38;;;;;;;2.85;1.30;;;12.70;99.90;;;;;;4998673;28;20041;-83
2023/01/01 08:53:53;;;;;;;5.15;1.23;;;12.70;99.90;;;;;;5021972;28;20034;-83
2023/01/01 08:57:08;;;;;;;5.57;1.85;;;12.70;99.90;;;;;;4992815;28;20489;-83
2023/01/01 09:00:23;;;;;;;2.70;0.98;;;12.80;99.90;;;;;;5021672;28;20487;-83
2023/01/01 09:03:38;;;;;;;4.30;1.80;;;12.70;99.90;;;;;;5004965;28;21514;-82
2023/01/01 09:06:54;;;;;;;3.80;1.33;;;12.80;99.90;;;;;;5006440;28;20117;-82
2023/01/01 09:10:10;;;;;;;6.72;1.17;;;12.90;99.90;;;;;;5005425;28;20049;-83
2023/01/01 09:13:26;;;;;;;4.93;1.65;;;13.00;99.90;;;;;;5006496;28;20117;-83
2023/01/01 09:16:44;;;;;;;2.60;1.00;;;13.00;99.90;;;;;;5005932;28;20082;-82
2023/01/01 09:20:00;;;;;;;8.98;0.95;;;13.00;99.90;;;;;;5005435;28;20073;-82
2023/01/01 09:23:15;;;;;;;8.00;1.25;;;13.10;99.90;;;;;;5007596;28;20038;-82
2023/01/01 09:26:31;;;;;;;1.70;0.80;;;13.10;99.90;;;;;;5006001;28;20069;-82
2023/01/01 09:29:46;;;;;;;7.55;1.83;;;13.10;99.90;;;;;;5004310;28;20038;-83
2023/01/01 09:33:01;;;;;;;5.63;1.20;;;13.20;99.90;;;;;;4999387;28;20050;-81
2023/01/01 09:36:16;;;;;;;3.75;1.33;;;13.20;99.90;;;;;;5006450;28;20065;-81
2023/01/01 09:39:32;;;;;;;6.53;1.92;;;13.20;99.90;;;;;;5002213;28;20125;-83
2023/01/01 09:42:48;;;;;;;7.05;2.03;;;13.30;99.90;;;;;;5004476;28;20037;-81
2023/01/01 09:46:05;;;;;;;4.15;1.23;;;13.30;99.90;;;;;;5003326;28;20038;-81
2023/01/01 09:49:20;;;;;;;2.80;1.88;;;13.30;99.90;;;;;;5005977;28;20457;-81
2023/01/01 09:52:35;;;;;;;3.28;1.40;;;13.40;99.90;;;;;;5005397;28;20034;-82
2023/01/01 09:55:50;;;;;;;6.78;1.80;;;13.40;99.90;;;;;;5006395;28;20042;-82
2023/01/01 09:59:06;;;;;;;3.33;1.50;;;13.40;99.90;;;;;;5004798;28;20136;-82
2023/01/01 10:02:21;;;;;;;2.78;0.82;;;13.40;99.90;;;;;;5004093;28;20044;-82
2023/01/01 10:05:36;;;;;;;4.68;1.23;;;13.50;99.90;;;;;;5005279;28;20053;-82
2023/01/01 10:08:51;;;;;;;7.60;1.60;;;13.50;99.90;;;;;;5005191;28;20041;-82
2023/01/01 10:12:07;;;;;;;3.55;1.33;;;13.50;99.90;;;;;;5005289;28;20097;-82
2023/01/01 10:15:23;;;;;;;2.17;1.02;;;13.50;99.90;;;;;;5019800;28;20066;-82
2023/01/01 10:18:39;;;;;;;1.02;0.50;;;13.50;99.90;;;;;;4997234;28;20048;-82
2023/01/01 10:21:54;;;;;;;8.50;1.65;;;13.50;99.90;;;;;;5004730;28;20505;-82
2023/01/01 10:25:09;;;;;;;4.78;1.50;;;13.60;99.90;;;;;;5003529;28;20023;-83
2023/01/01 10:28:25;;;;;;;6.88;1.52;;;13.60;99.90;;;;;;5004701;28;20494;-83
2023/01/01 10:31:41;;;;;;;4.38;0.88;;;13.60;99.90;;;;;;5006632;28;20450;-83
2023/01/01 10:34:56;;;;;;;4.22;0.88;;;13.60;99.90;;;;;;5015483;28;20042;-83
2023/01/01 10:38:11;;;;;;;4.53;1.73;;;13.70;99.90;;;;;;4996726;28;20032;-82
2023/01/01 10:41:27;;;;;;;4.15;1.17;;;13.70;99.90;;;;;;5002807;28;20030;-83
2023/01/01 10:44:43;;;;;;;3.22;1.33;;;13.70;99.90;;;;;;5006498;28;20524;-82
2023/01/01 10:47:59;;;;;;;6.45;1.42;;;13.70;99.90;;;;;;5003984;28;20125;-83
2023/01/01 10:51:14;;;;;;;3.95;1.30;;;13.80;99.90;;;;;;5004942;28;20030;-83
2023/01/01 10:54:31;;;;;;;11.38;3.28;;;13.80;99.90;;;;;;5004973;28;20580;-82
2023/01/01 10:57:47;;;;;;;7.47;1.40;;;13.80;99.90;;;;;;5003852;28;20053;-82
2023/01/01 11:01:03;;;;;;;3.85;1.27;;;13.80;99.90;;;;;;5003421;28;20116;-83
2023/01/01 11:04:18;;;;;;;5.55;2.20;;;13.80;99.90;;;;;;5018800;28;20029;-82
2023/01/01 11:07:33;;;;;;;4.55;1.13;;;13.90;99.90;;;;;;5019334;28;20084;-82
2023/01/01 11:10:49;;;;;;;4.13;1.13;;;13.90;99.90;;;;;;5005262;28;20038;-82
2023/01/01 16:33:26;;;;;;;4.03;1.50;;;12.30;99.90;;;;;;4999826;28;20049;-82
2023/01/01 16:35:52;;;;;;;4.25;1.73;;;12.30;99.90;;;;;;4979952;28;20046;-81
2023/01/01 16:38:18;;;;;;;7.00;1.42;;;12.40;99.90;;;;;;4999125;28;20601;-81
2023/01/01 16:40:43;;;;;;;2.55;1.27;;;12.30;99.90;;;;;;4999184;28;20041;-81
2023/01/01 16:43:14;;;;;;;2.70;1.30;;;12.30;99.90;;;;;;4979832;28;20063;-82
2023/01/01 16:45:40;;;;;;;3.50;1.55;;;12.30;99.90;;;;;;4980138;28;20038;-81
2023/01/01 16:48:05;;;;;;;3.78;1.40;;;12.20;99.90;;;;;;4990170;28;20048;-82
2023/01/01 16:50:31;;;;;;;5.65;1.35;;;12.20;99.90;;;;;;4980493;28;20030;-82
2023/01/01 16:52:56;;;;;;;5.25;1.67;;;12.20;99.90;;;;;;4984337;28;20030;-82
2023/01/01 16:55:22;;;;;;;4.30;1.50;;;12.20;99.90;;;;;;4985277;28;20034;-82
2023/01/01 16:57:47;;;;;;;7.00;1.65;;;12.10;99.90;;;;;;4981538;28;20095;-81
2023/01/01 17:00:13;;;;;;;3.45;1.52;;;12.10;99.90;;;;;;4985179;28;20119;-81
2023/01/01 17:02:39;;;;;;;5.20;1.60;;;12.10;99.90;;;;;;4985232;28;20038;-81
2023/01/01 17:05:05;;;;;;;5.55;1.30;;;12.10;99.90;;;;;;4998416;28;20445;-81
2023/01/01 17:07:31;;;;;;;5.85;1.33;;;12.00;99.90;;;;;;4982460;28;20037;-81
2023/01/01 17:09:56;;;;;;;3.08;1.27;;;12.00;99.90;;;;;;5000441;28;20065;-82
2023/01/01 17:12:22;;;;;;;4.88;1.60;;;11.90;99.90;;;;;;4983982;28;20076;-82
2023/01/01 17:14:48;;;;;;;5.47;1.50;;;11.90;99.90;;;;;;4990151;28;20034;-82
2023/01/01 17:17:14;;;;;;;5.15;1.90;;;11.80;99.90;;;;;;4989778;28;20026;-82
2023/01/01 17:19:39;;;;;;;3.65;1.42;;;11.90;99.90;;;;;;4971863;28;20034;-82
2023/01/01 17:22:05;;;;;;;4.97;1.52;;;11.90;99.90;;;;;;4990602;28;20026;-82
2023/01/01 17:24:30;;;;;;;6.05;1.67;;;11.80;99.90;;;;;;4991501;28;20034;-83
2023/01/01 17:26:56;;;;;;;3.72;1.92;;;11.70;99.90;;;;;;4990546;28;20087;-83
2023/01/01 17:29:22;;;;;;;4.63;1.65;;;11.70;99.90;;;;;;4987742;28;20173;-83
2023/01/01 17:31:47;;;;;;;3.30;1.95;;;11.70;99.90;;;;;;5004590;28;20037;-83
2023/01/01 17:34:13;;;;;;;4.40;2.08;;;11.60;99.90;;;;;;4989471;28;20036;-83
2023/01/01 17:36:39;;;;;;;7.63;1.90;;;11.70;99.90;;;;;;4989982;28;20030;-83
2023/01/01 17:39:05;;;;;;;8.57;2.33;;;11.60;99.90;;;;;;4988405;28;20159;-83
2023/01/01 17:41:31;;;;;;;3.78;2.00;;;11.60;99.90;;;;;;4978177;28;20121;-83
2023/01/01 17:43:57;;;;;;;3.25;2.17;;;11.60;99.90;;;;;;4972999;28;20513;-83
2023/01/01 17:46:27;;;;;;;7.80;2.47;;;11.60;99.90;;;;;;4989801;28;20030;-83
2023/01/01 17:48:52;;;;;;;3.28;2.00;;;11.50;99.90;;;;;;4988288;28;20488;-83
2023/01/01 17:51:18;;;;;;;3.90;1.65;;;11.60;99.90;;;;;;4953804;28;20070;-83
2023/01/01 17:53:44;;;;;;;5.55;2.28;;;11.70;99.90;;;;;;4982106;28;20058;-82
2023/01/01 17:56:11;;;;;;;6.40;3.50;;;11.50;99.90;;;;;;4994144;28;20576;-83
2023/01/01 17:58:37;;;;;;;6.20;3.50;;;11.60;99.90;;;;;;4966700;28;20690;-83
2023/01/01 18:01:24;;;;;;;4.97;2.80;;;11.60;99.90;;;;;;4972191;28;20049;-83
2023/01/01 18:03:54;;;;;;;4.50;2.30;;;11.50;99.90;;;;;;4970399;28;20061;-85
2023/01/01 18:06:20;;;;;;;6.70;2.38;;;11.50;99.90;;;;;;4983405;28;20037;-85
2023/01/01 18:08:46;;;;;;;2.45;1.80;;;11.40;99.90;;;;;;4974929;28;20052;-85
2023/01/01 18:11:11;;;;;;;5.57;2.15;;;11.40;99.90;;;;;;4969925;28;20494;-85
2023/01/01 18:13:37;;;;;;;5.00;3.03;;;11.40;99.90;;;;;;4993716;28;20152;-85
2023/01/01 18:16:03;;;;;;;7.28;2.70;;;11.40;99.90;;;;;;4970378;28;20521;-85
2023/01/01 18:18:32;;;;;;;7.07;2.67;;;11.40;99.90;;;;;;4986738;28;20041;-85
2023/01/01 18:21:01;;;;;;;5.85;2.45;;;11.40;99.90;;;;;;4966908;28;20089;-85
2023/01/01 18:23:33;;;;;;;3.60;2.38;;;11.40;99.90;;;;;;4969754;28;20045;-85
2023/01/01 18:26:00;;;;;;;8.90;3.33;;;11.40;99.90;;;;;;4988267;28;20127;-85
2023/01/01 18:28:26;;;;;;;5.95;2.83;;;11.30;99.90;;;;;;4973232;28;20053;-85
2023/01/01 18:30:51;;;;;;;6.03;2.40;;;11.30;99.90;;;;;;4986026;28;20034;-85
2023/01/01 18:33:17;;;;;;;5.10;2.63;;;11.30;99.90;;;;;;4988849;28;20042;-86
2023/01/01 18:35:42;;;;;;;4.00;2.63;;;11.30;99.90;;;;;;4977709;28;20069;-86
2023/01/01 18:38:11;;;;;;;3.47;2.22;;;11.30;99.90;;;;;;4976437;28;20030;-84
2023/01/01 18:40:37;;;;;;;7.47;4.47;;;11.40;99.90;;;;;;4998591;28;20144;-83
2023/01/01 18:43:18;;;;;;;6.53;3.38;;;11.30;99.90;;;;;;4970357;28;20741;-84
2023/01/01 18:45:44;;;;;;;7.78;4.18;;;11.30;99.90;;;;;;4971852;28;20441;-84
2023/01/01 18:48:12;;;;;;;9.80;3.55;;;11.30;99.90;;;;;;4992887;28;20034;-84
2023/01/01 18:50:38;;;;;;;5.20;3.38;;;11.30;99.90;;;;;;4980825;28;20030;-84
2023/01/01 18:53:17;;;;;;;6.05;3.00;;;11.30;99.90;;;;;;4964710;28;20506;-84
2023/01/01 18:55:44;;;;;;;5.72;3.38;;;11.30;99.90;;;;;;5001371;28;20062;-85
2023/01/01 18:58:22;;;;;;;6.97;2.70;;;11.30;99.90;;;;;;4987296;28;20038;-84
2023/01/01 19:00:49;;;;;;;7.25;3.40;;;11.20;99.90;;;;;;4973754;28;20031;-84
2023/01/01 19:03:21;;;;;;;4.65;3.05;;;11.30;99.90;;;;;;4987697;28;20091;-85
2023/01/01 19:05:47;;;;;;;5.13;2.33;;;11.30;99.90;;;;;;4993588;28;20038;-85
2023/01/01 19:08:15;;;;;;;5.00;2.88;;;11.30;99.90;;;;;;4973839;28;20034;-85
2023/01/01 19:10:52;;;;;;;4.90;2.83;;;11.30;99.90;;;;;;4987872;28;20034;-85